createdAt,value
2022-12-11T00:00:30.058Z,92.28
2022-12-11T00:02:58.045Z,92.37
2022-12-11T00:05:25.830Z,92.71
2022-12-11T00:07:53.657Z,92.41
2022-12-11T00:10:21.465Z,92.22
2022-12-11T00:12:49.225Z,92.39
2022-12-11T00:15:18.603Z,92.44
2022-12-11T00:17:46.195Z,92.44
2022-12-11T00:20:14.007Z,92.48
2022-12-11T00:22:41.805Z,92.61
2022-12-11T00:25:10.399Z,92.64
2022-12-11T00:27:39.068Z,92.25
2022-12-11T00:30:08.190Z,92.29
2022-12-11T00:32:37.887Z,92.45
2022-12-11T00:35:06.294Z,92.48
2022-12-11T00:37:34.124Z,92.38
2022-12-11T00:40:01.963Z,92.28
2022-12-11T00:42:29.701Z,92.21
2022-12-11T00:44:57.820Z,92.19
2022-12-11T00:47:25.577Z,92.23
2022-12-11T00:49:54.660Z,92.23
2022-12-11T00:52:22.408Z,92.12
2022-12-11T00:54:50.178Z,92.01
2022-12-11T00:57:17.961Z,92.09
2022-12-11T00:59:45.751Z,91.99
2022-12-11T01:02:13.692Z,91.83
2022-12-11T01:04:41.457Z,91.89
2022-12-11T01:07:10.703Z,91.78
2022-12-11T01:09:55.850Z,91.89
2022-12-11T01:12:23.630Z,91.78
2022-12-11T01:14:52.123Z,91.83
2022-12-11T01:17:19.930Z,92.10
2022-12-11T01:19:47.842Z,91.83
2022-12-11T01:22:16.929Z,92.05
2022-12-11T01:24:47.840Z,91.99
2022-12-11T01:27:15.644Z,92.02
2022-12-11T01:29:43.446Z,92.14
2022-12-11T01:32:11.236Z,91.72
2022-12-11T01:34:42.160Z,91.68
2022-12-11T01:37:09.965Z,91.78
2022-12-11T01:39:39.468Z,91.58
2022-12-11T01:42:10.305Z,91.12
2022-12-11T01:45:27.450Z,90.66
2022-12-11T01:47:59.354Z,91.04
2022-12-11T01:50:27.319Z,91.10
2022-12-11T01:52:55.183Z,91.17
2022-12-11T01:55:24.388Z,91.09
2022-12-11T01:57:53.951Z,91.05
2022-12-11T02:00:22.485Z,91.01
2022-12-11T02:02:50.320Z,91.17
2022-12-11T02:05:18.181Z,91.14
2022-12-11T02:07:50.547Z,90.99
2022-12-11T02:10:18.650Z,90.67
2022-12-11T02:12:58.563Z,90.70
2022-12-11T02:15:36.772Z,90.85
2022-12-11T02:18:15.083Z,90.43
2022-12-11T02:20:47.335Z,90.72
2022-12-11T02:23:48.439Z,91.01
2022-12-11T02:26:32.617Z,91.25
2022-12-11T02:29:03.706Z,91.12
2022-12-11T02:31:38.228Z,90.83
2022-12-11T02:34:10.990Z,90.95
2022-12-11T02:36:42.599Z,91.04
2022-12-11T02:39:13.316Z,91.22
2022-12-11T02:41:43.937Z,91.51
2022-12-11T02:44:16.120Z,91.98
2022-12-11T02:46:45.233Z,91.86
2022-12-11T02:49:14.489Z,91.65
2022-12-11T02:51:43.528Z,91.87
2022-12-11T02:54:16.876Z,91.97
2022-12-11T02:56:47.677Z,92.19
2022-12-11T02:59:22.447Z,92.03
2022-12-11T03:01:50.436Z,91.85
2022-12-11T03:04:18.499Z,91.86
2022-12-11T03:06:50.244Z,91.90
2022-12-11T03:09:18.016Z,91.98
2022-12-11T03:11:45.946Z,92.13
2022-12-11T03:14:14.694Z,91.90
2022-12-11T03:16:51.476Z,91.95
2022-12-11T03:19:25.196Z,91.80
2022-12-11T03:21:56.595Z,91.61
2022-12-11T03:24:31.472Z,91.52
2022-12-11T03:27:04.546Z,91.78
2022-12-11T03:29:39.909Z,91.90
2022-12-11T03:32:12.638Z,91.52
2022-12-11T03:34:45.893Z,91.45
2022-12-11T03:37:15.177Z,91.76
2022-12-11T03:39:44.743Z,91.60
2022-12-11T03:42:14.893Z,91.10
2022-12-11T03:44:45.345Z,90.24
2022-12-11T03:47:18.489Z,90.44
2022-12-11T03:49:47.534Z,90.92
2022-12-11T03:52:16.837Z,90.46
2022-12-11T03:54:48.646Z,90.52
2022-12-11T03:57:23.330Z,90.01
2022-12-11T03:59:51.216Z,89.57
2022-12-11T04:02:20.293Z,89.67
2022-12-11T04:04:48.055Z,89.64
2022-12-11T04:07:15.834Z,91.45
2022-12-11T04:09:43.634Z,90.88
2022-12-11T04:12:11.399Z,90.85
2022-12-11T04:14:56.491Z,89.59
2022-12-11T04:17:43.272Z,91.21
2022-12-11T04:20:29.696Z,90.29
2022-12-11T04:23:14.898Z,90.06
2022-12-11T04:25:42.699Z,90.14
2022-12-11T04:28:10.484Z,90.92
2022-12-11T04:30:38.218Z,89.96
2022-12-11T04:33:07.282Z,89.50
2022-12-11T04:35:35.023Z,90.01
2022-12-11T04:38:02.803Z,89.68
2022-12-11T04:40:30.549Z,89.76
2022-12-11T04:42:58.300Z,90.17
2022-12-11T04:45:26.046Z,91.21
2022-12-11T04:47:53.747Z,90.87
2022-12-11T04:50:23.037Z,93.89
2022-12-11T04:52:50.843Z,93.89
2022-12-11T04:55:18.720Z,93.14
2022-12-11T04:57:46.633Z,91.41
2022-12-11T05:00:15.422Z,92.82
2022-12-11T05:02:43.812Z,93.04
2022-12-11T05:05:12.259Z,89.34
2022-12-11T05:07:42.064Z,90.81
2022-12-11T05:10:11.245Z,89.95
2022-12-11T05:12:39.090Z,88.66
2022-12-11T05:15:08.546Z,89.51
2022-12-11T05:17:36.479Z,89.32
2022-12-11T05:20:04.822Z,89.60
2022-12-11T05:22:32.868Z,89.76
2022-12-11T05:25:01.938Z,89.63
2022-12-11T05:27:29.693Z,90.46
2022-12-11T05:29:59.571Z,90.85
2022-12-11T05:32:27.880Z,90.14
2022-12-11T05:34:56.154Z,89.34
2022-12-11T05:37:24.013Z,89.64
2022-12-11T05:39:51.720Z,89.33
2022-12-11T05:42:24.101Z,89.76
2022-12-11T05:44:56.241Z,88.08
2022-12-11T05:47:23.962Z,87.93
2022-12-11T05:49:51.696Z,88.95
2022-12-11T05:52:19.541Z,88.64
2022-12-11T05:54:49.700Z,88.81
2022-12-11T05:57:17.476Z,88.66
2022-12-11T05:59:46.571Z,89.34
2022-12-11T06:02:14.396Z,90.53
2022-12-11T06:04:42.281Z,91.26
2022-12-11T06:07:10.027Z,89.68
2022-12-11T06:09:37.776Z,88.24
2022-12-11T06:12:05.836Z,89.18
2022-12-11T06:14:33.607Z,88.99
2022-12-11T06:17:02.678Z,89.60
2022-12-11T06:19:36.398Z,89.01
2022-12-11T06:22:04.857Z,88.15
2022-12-11T06:24:32.606Z,88.99
2022-12-11T06:27:00.394Z,88.46
2022-12-11T06:29:30.463Z,89.77
2022-12-11T06:31:58.262Z,90.48
2022-12-11T06:34:27.488Z,89.15
2022-12-11T06:36:55.247Z,88.93
2022-12-11T06:39:23.044Z,89.30
2022-12-11T06:41:50.780Z,89.27
2022-12-11T06:44:18.535Z,89.04
2022-12-11T06:46:46.290Z,89.44
2022-12-11T06:49:14.033Z,88.82
2022-12-11T06:51:43.137Z,89.30
2022-12-11T06:54:10.885Z,89.57
2022-12-11T06:56:38.629Z,89.15
2022-12-11T06:59:07.727Z,89.20
2022-12-11T07:01:35.544Z,88.67
2022-12-11T07:04:03.281Z,88.21
2022-12-11T07:06:31.169Z,88.59
2022-12-11T07:09:00.315Z,89.99
2022-12-11T07:11:28.114Z,89.76
2022-12-11T07:13:55.880Z,89.37
2022-12-11T07:16:25.739Z,88.62
2022-12-11T07:18:53.673Z,89.61
2022-12-11T07:21:21.890Z,89.15
2022-12-11T07:23:50.643Z,89.10
2022-12-11T07:26:21.577Z,88.53
2022-12-11T07:28:50.184Z,89.48
2022-12-11T07:31:21.948Z,89.88
2022-12-11T07:33:54.924Z,88.88
2022-12-11T07:36:23.043Z,89.45
2022-12-11T07:38:50.946Z,89.79
2022-12-11T07:41:20.398Z,89.40
2022-12-11T07:43:54.038Z,89.71
2022-12-11T07:46:23.877Z,88.89
2022-12-11T07:48:51.960Z,89.59
2022-12-11T07:51:22.744Z,88.23
2022-12-11T07:53:51.528Z,88.71
2022-12-11T07:56:20.882Z,88.55
2022-12-11T07:58:48.494Z,87.87
2022-12-11T08:01:18.579Z,88.23
2022-12-11T08:03:46.438Z,88.93
2022-12-11T08:06:14.502Z,89.02
2022-12-11T08:08:42.902Z,87.93
2022-12-11T08:11:12.541Z,88.05
2022-12-11T08:13:42.260Z,88.48
2022-12-11T08:16:13.061Z,88.37
2022-12-11T08:18:41.827Z,88.03
2022-12-11T08:21:10.995Z,88.78
2022-12-11T08:23:38.796Z,88.75
2022-12-11T08:26:08.438Z,88.18
2022-12-11T08:28:36.016Z,87.97
2022-12-11T08:31:07.661Z,88.10
2022-12-11T08:33:36.372Z,88.44
2022-12-11T08:36:04.796Z,87.82
2022-12-11T08:38:32.580Z,88.08
2022-12-11T08:41:00.526Z,88.67
2022-12-11T08:43:28.223Z,88.42
2022-12-11T08:45:56.030Z,87.54
2022-12-11T08:48:25.205Z,87.07
2022-12-11T08:50:52.976Z,86.98
2022-12-11T08:53:20.720Z,87.85
2022-12-11T08:55:48.482Z,87.95
2022-12-11T08:58:16.236Z,87.83
2022-12-11T09:00:43.947Z,87.72
2022-12-11T09:03:13.074Z,87.86
2022-12-11T09:05:42.275Z,87.31
2022-12-11T09:08:10.081Z,86.64
2022-12-11T09:10:37.884Z,86.37
2022-12-11T09:13:05.761Z,85.94
2022-12-11T09:15:33.556Z,85.17
2022-12-11T09:18:01.320Z,83.78
2022-12-11T09:20:29.047Z,80.52
2022-12-11T09:22:58.133Z,77.40
2022-12-11T09:25:25.878Z,75.19
2022-12-11T09:27:53.655Z,75.00
2022-12-11T09:30:21.694Z,75.87
2022-12-11T09:32:49.457Z,74.43
2022-12-11T09:35:17.421Z,74.66
2022-12-11T09:37:45.173Z,75.19
2022-12-11T09:40:14.861Z,73.47
2022-12-11T09:42:51.847Z,75.35
2022-12-11T09:45:20.085Z,75.62
2022-12-11T09:47:51.026Z,74.66
2022-12-11T09:50:22.119Z,76.96
2022-12-11T09:53:00.878Z,78.02
2022-12-11T09:55:36.163Z,77.48
2022-12-11T09:58:12.294Z,78.38
2022-12-11T10:00:42.689Z,79.49
2022-12-11T10:03:32.849Z,73.95
2022-12-11T10:06:06.734Z,72.21
2022-12-11T10:08:41.129Z,69.57
2022-12-11T10:11:25.721Z,68.00
2022-12-11T10:14:02.911Z,65.01
2022-12-11T10:16:37.720Z,63.38
2022-12-11T10:19:05.790Z,62.50
2022-12-11T10:21:40.980Z,58.52
2022-12-11T10:24:40.819Z,56.16
2022-12-11T10:27:15.951Z,58.03
2022-12-11T10:29:44.014Z,59.93
2022-12-11T10:32:21.596Z,61.89
2022-12-11T10:34:54.129Z,65.59
2022-12-11T10:37:21.980Z,66.50
2022-12-11T10:39:49.760Z,67.96
2022-12-11T10:42:21.554Z,70.02
2022-12-11T10:45:00.502Z,69.63
2022-12-11T10:47:28.346Z,71.26
2022-12-11T10:49:58.305Z,72.05
2022-12-11T10:52:28.464Z,71.67
2022-12-11T10:55:00.696Z,71.74
2022-12-11T10:57:33.332Z,72.48
2022-12-11T11:00:01.709Z,73.18
2022-12-11T11:02:33.077Z,73.90
2022-12-11T11:05:02.559Z,74.48
2022-12-11T11:07:30.719Z,73.95
2022-12-11T11:10:15.050Z,73.83
2022-12-11T11:12:45.861Z,74.40
2022-12-11T11:15:16.460Z,74.44
2022-12-11T11:17:54.554Z,74.52
2022-12-11T11:20:25.469Z,75.24
2022-12-11T11:22:56.010Z,73.82
2022-12-11T11:25:25.759Z,73.06
2022-12-11T11:27:57.262Z,70.00
2022-12-11T11:30:27.230Z,67.65
2022-12-11T11:32:57.526Z,65.07
2022-12-11T11:35:27.230Z,65.28
2022-12-11T11:38:01.514Z,62.19
2022-12-11T11:40:31.772Z,60.94
2022-12-11T11:43:08.744Z,60.07
2022-12-11T11:45:43.995Z,59.47
2022-12-11T11:48:21.323Z,59.88
2022-12-11T11:50:52.026Z,58.54
2022-12-11T11:53:25.354Z,59.04
2022-12-11T11:56:02.658Z,58.91
2022-12-11T11:58:40.591Z,59.61
2022-12-11T12:01:15.525Z,58.70
2022-12-11T12:03:43.395Z,59.76
2022-12-11T12:06:18.875Z,59.33
2022-12-11T12:08:56.463Z,59.30
2022-12-11T12:11:33.671Z,61.84
2022-12-11T12:14:35.834Z,60.14
2022-12-11T12:17:10.828Z,59.98
2022-12-11T12:19:47.982Z,60.25
2022-12-11T12:22:36.298Z,59.98
2022-12-11T12:25:17.460Z,59.17
2022-12-11T12:27:53.050Z,58.63
2022-12-11T12:30:23.828Z,59.63
2022-12-11T12:33:05.386Z,62.51
2022-12-11T12:35:36.720Z,64.42
2022-12-11T12:38:12.205Z,66.01
2022-12-11T12:40:52.775Z,67.99
2022-12-11T12:43:38.126Z,69.33
2022-12-11T12:46:16.265Z,68.96
2022-12-11T12:48:45.998Z,69.54
2022-12-11T12:51:15.594Z,70.34
2022-12-11T12:53:48.506Z,70.86
2022-12-11T12:56:17.620Z,71.30
2022-12-11T12:58:47.256Z,72.11
2022-12-11T13:01:20.371Z,71.59
2022-12-11T13:03:55.379Z,71.83
2022-12-11T13:06:32.127Z,71.97
2022-12-11T13:09:13.322Z,72.62
2022-12-11T13:11:41.183Z,73.24
2022-12-11T13:14:27.094Z,73.68
2022-12-11T13:17:07.489Z,74.33
2022-12-11T13:19:42.138Z,74.29
2022-12-11T13:22:23.088Z,74.51
2022-12-11T13:24:59.737Z,74.40
2022-12-11T13:27:38.338Z,74.83
2022-12-11T13:30:21.628Z,75.05
2022-12-11T13:33:01.882Z,75.53
2022-12-11T13:35:30.465Z,75.83
2022-12-11T13:38:05.315Z,76.49
2022-12-11T13:40:39.482Z,76.32
2022-12-11T13:43:11.155Z,76.60
2022-12-11T13:45:46.810Z,76.77
2022-12-11T13:48:23.286Z,77.09
2022-12-11T13:50:52.554Z,77.42
2022-12-11T13:53:21.273Z,77.59
2022-12-11T13:55:58.343Z,77.75
2022-12-11T13:58:26.673Z,77.27
2022-12-11T14:01:03.955Z,77.03
2022-12-11T14:03:33.749Z,77.50
2022-12-11T14:06:02.851Z,77.40
2022-12-11T14:08:35.314Z,77.57
2022-12-11T14:11:03.662Z,77.86
2022-12-11T14:13:35.121Z,77.65
2022-12-11T14:16:04.046Z,77.96
2022-12-11T14:18:36.348Z,78.03
2022-12-11T14:21:06.230Z,78.25
2022-12-11T14:23:35.138Z,78.01
2022-12-11T14:26:04.972Z,78.65
2022-12-11T14:28:39.337Z,77.74
2022-12-11T14:31:07.917Z,78.21
2022-12-11T14:33:42.005Z,78.82
2022-12-11T14:36:10.953Z,78.50
2022-12-11T14:38:44.329Z,78.55
2022-12-11T14:41:17.595Z,78.32
2022-12-11T14:43:49.068Z,77.99
2022-12-11T14:46:19.836Z,78.53
2022-12-11T14:49:00.831Z,78.62
2022-12-11T14:51:32.307Z,78.93
2022-12-11T14:54:00.537Z,79.14
2022-12-11T14:56:30.636Z,79.30
2022-12-11T14:59:01.375Z,79.22
2022-12-11T15:01:31.203Z,79.35
2022-12-11T15:04:17.245Z,79.39
2022-12-11T15:06:47.035Z,79.78
2022-12-11T15:09:22.851Z,80.03
2022-12-11T15:11:52.071Z,80.29
2022-12-11T15:14:21.666Z,80.06
2022-12-11T15:16:51.521Z,79.75
2022-12-11T15:19:24.437Z,79.87
2022-12-11T15:21:53.158Z,80.23
2022-12-11T15:24:31.396Z,81.13
2022-12-11T15:27:01.099Z,81.27
2022-12-11T15:29:35.025Z,81.62
2022-12-11T15:32:18.933Z,81.83
2022-12-11T15:34:49.980Z,81.70
2022-12-11T15:37:25.941Z,81.64
2022-12-11T15:39:55.138Z,82.02
2022-12-11T15:42:27.074Z,82.40
2022-12-11T15:44:56.362Z,83.19
2022-12-11T15:47:26.456Z,83.84
2022-12-11T15:49:59.360Z,84.20
2022-12-11T15:52:27.187Z,84.08
2022-12-11T15:54:55.226Z,84.40
2022-12-11T15:57:25.279Z,84.31
2022-12-11T15:59:54.836Z,84.76
2022-12-11T16:02:24.219Z,85.31
2022-12-11T16:04:52.145Z,86.19
2022-12-11T16:07:23.749Z,86.35
2022-12-11T16:09:51.825Z,86.60
2022-12-11T16:12:20.315Z,87.14
2022-12-11T16:14:48.143Z,87.34
2022-12-11T16:17:16.834Z,87.66
2022-12-11T16:19:45.448Z,87.80
2022-12-11T16:22:14.502Z,87.92
2022-12-11T16:24:44.255Z,88.45
2022-12-11T16:27:12.115Z,88.81
2022-12-11T16:29:42.611Z,88.74
2022-12-11T16:32:11.108Z,88.79
2022-12-11T16:34:39.393Z,88.91
2022-12-11T16:37:08.206Z,89.12
2022-12-11T16:39:36.800Z,89.92
2022-12-11T16:42:06.586Z,89.90
2022-12-11T16:44:37.258Z,89.46
2022-12-11T16:47:07.391Z,89.36
2022-12-11T16:49:35.190Z,89.35
2022-12-11T16:52:02.963Z,89.81
2022-12-11T16:54:30.747Z,91.02
2022-12-11T16:56:58.530Z,90.71
2022-12-11T16:59:29.953Z,91.13
2022-12-11T17:02:00.141Z,90.00
2022-12-11T17:04:28.674Z,90.26
2022-12-11T17:06:56.441Z,90.39
2022-12-11T17:09:24.233Z,90.50
2022-12-11T17:11:54.699Z,90.58
2022-12-11T17:14:22.610Z,90.65
2022-12-11T17:16:52.004Z,90.79
2022-12-11T17:19:21.005Z,90.73
2022-12-11T17:21:51.638Z,90.96
2022-12-11T17:24:19.756Z,91.14
2022-12-11T17:26:47.738Z,92.10
2022-12-11T17:29:15.613Z,91.47
2022-12-11T17:31:43.456Z,91.68
2022-12-11T17:34:12.660Z,91.84
2022-12-11T17:36:40.448Z,92.14
2022-12-11T17:39:08.334Z,91.83
2022-12-11T17:41:36.112Z,91.76
2022-12-11T17:44:04.050Z,91.83
2022-12-11T17:46:31.966Z,91.73
2022-12-11T17:49:00.218Z,91.69
2022-12-11T17:51:29.477Z,92.13
2022-12-11T17:53:57.674Z,92.43
2022-12-11T17:56:26.261Z,92.99
2022-12-11T17:58:54.134Z,93.19
2022-12-11T18:01:22.011Z,93.21
2022-12-11T18:03:49.895Z,92.89
2022-12-11T18:06:18.040Z,92.81
2022-12-11T18:08:47.190Z,92.77
2022-12-11T18:11:17.477Z,92.92
2022-12-11T18:13:46.643Z,93.34
2022-12-11T18:16:17.229Z,93.71
2022-12-11T18:18:45.822Z,93.55
2022-12-11T18:21:14.417Z,93.19
2022-12-11T18:23:42.251Z,92.98
2022-12-11T18:26:14.356Z,92.61
2022-12-11T18:28:42.443Z,92.18
2022-12-11T18:31:11.062Z,91.65
2022-12-11T18:33:39.866Z,91.48
2022-12-11T18:36:08.847Z,91.09
2022-12-11T18:38:37.573Z,91.07
2022-12-11T18:41:06.359Z,91.17
2022-12-11T18:43:36.159Z,91.01
2022-12-11T18:46:06.726Z,90.53
2022-12-11T18:48:34.595Z,90.04
2022-12-11T18:51:02.379Z,89.72
2022-12-11T18:53:30.104Z,89.32
2022-12-11T18:56:00.577Z,89.46
2022-12-11T18:58:28.634Z,89.25
2022-12-11T19:00:57.769Z,88.87
2022-12-11T19:03:25.594Z,88.48
2022-12-11T19:05:53.389Z,88.31
2022-12-11T19:08:22.076Z,88.16
2022-12-11T19:10:50.037Z,88.26
2022-12-11T19:13:17.840Z,88.00
2022-12-11T19:15:45.665Z,88.15
2022-12-11T19:18:14.877Z,87.71
2022-12-11T19:21:02.837Z,87.83
2022-12-11T19:23:32.174Z,87.75
2022-12-11T19:25:59.966Z,87.77
2022-12-11T19:28:27.805Z,87.53
2022-12-11T19:30:55.697Z,87.70
2022-12-11T19:33:24.916Z,87.60
2022-12-11T19:36:01.737Z,87.24
2022-12-11T19:38:29.621Z,86.96
2022-12-11T19:40:57.429Z,86.94
2022-12-11T19:43:25.245Z,87.47
2022-12-11T19:45:53.050Z,87.44
2022-12-11T19:48:20.874Z,87.28
2022-12-11T19:50:50.099Z,87.09
2022-12-11T19:53:17.868Z,87.09
2022-12-11T19:55:50.715Z,87.23
2022-12-11T19:58:18.644Z,86.75
2022-12-11T20:00:46.516Z,87.06
2022-12-11T20:03:14.870Z,86.53
2022-12-11T20:05:43.039Z,86.55
2022-12-11T20:08:43.127Z,86.50
2022-12-11T20:11:05.351Z,85.98
2022-12-11T20:13:36.390Z,85.86
2022-12-11T20:16:07.259Z,86.18
2022-12-11T20:18:35.236Z,86.45
2022-12-11T20:21:03.429Z,86.59
2022-12-11T20:23:32.890Z,86.57
2022-12-11T20:26:00.690Z,86.56
2022-12-11T20:28:28.461Z,86.08
2022-12-11T20:30:56.260Z,85.67
2022-12-11T20:33:24.020Z,85.30
2022-12-11T20:35:51.787Z,85.12
2022-12-11T20:38:20.944Z,84.97
2022-12-11T20:40:50.120Z,85.07
2022-12-11T20:43:17.898Z,84.62
2022-12-11T20:45:48.508Z,84.34
2022-12-11T20:48:16.737Z,84.86
2022-12-11T20:50:44.889Z,85.10
2022-12-11T20:53:12.683Z,85.17
2022-12-11T20:55:40.952Z,85.42
2022-12-11T20:58:10.742Z,84.78
2022-12-11T21:00:39.686Z,85.18
2022-12-11T21:03:08.040Z,84.72
2022-12-11T21:05:41.177Z,84.86
2022-12-11T21:08:09.216Z,84.77
2022-12-11T21:10:37.860Z,85.38
2022-12-11T21:13:05.637Z,85.40
2022-12-11T21:15:36.172Z,85.12
2022-12-11T21:18:04.375Z,85.74
2022-12-11T21:20:32.152Z,85.76
2022-12-11T21:23:00.020Z,85.64
2022-12-11T21:25:27.923Z,85.64
2022-12-11T21:27:55.698Z,85.50
2022-12-11T21:30:23.442Z,85.87
2022-12-11T21:32:53.162Z,86.06
2022-12-11T21:35:21.696Z,86.02
2022-12-11T21:37:49.761Z,85.91
2022-12-11T21:40:17.600Z,85.97
2022-12-11T21:42:45.658Z,86.07
2022-12-11T21:48:02.554Z,86.51
2022-12-11T21:50:30.299Z,86.50
2022-12-11T21:52:58.914Z,86.67
2022-12-11T21:55:26.746Z,86.74
2022-12-11T21:57:55.373Z,86.76
2022-12-11T22:00:23.527Z,86.85
2022-12-11T22:02:51.804Z,87.05
2022-12-11T22:05:21.187Z,87.28
2022-12-11T22:07:48.842Z,87.39
2022-12-11T22:10:16.669Z,87.58
2022-12-11T22:12:44.477Z,87.70
2022-12-11T22:15:12.746Z,87.80
2022-12-11T22:17:40.757Z,87.95
2022-12-11T22:20:09.398Z,88.20
2022-12-11T22:22:38.523Z,88.42
2022-12-11T22:25:07.884Z,88.52
2022-12-11T22:27:35.511Z,88.79
2022-12-11T22:30:03.329Z,88.63
2022-12-11T22:32:31.163Z,88.72
2022-12-11T22:34:58.904Z,88.56
2022-12-11T22:37:26.712Z,88.70
2022-12-11T22:39:55.971Z,88.97
2022-12-11T22:42:23.771Z,89.03
2022-12-11T22:44:51.530Z,89.10
2022-12-11T22:47:19.545Z,89.30
2022-12-11T22:49:47.396Z,89.43
2022-12-11T22:52:15.211Z,89.15
2022-12-11T22:54:43.615Z,89.08
2022-12-11T22:57:14.160Z,89.78
2022-12-11T22:59:42.263Z,89.89
2022-12-11T23:02:10.105Z,89.60
2022-12-11T23:04:39.558Z,89.84
2022-12-11T23:07:07.885Z,90.26
2022-12-11T23:09:35.711Z,90.76
2022-12-11T23:12:03.529Z,90.93
2022-12-11T23:14:32.676Z,91.29
2022-12-11T23:17:00.657Z,91.37
2022-12-11T23:19:28.542Z,91.30
2022-12-11T23:21:56.341Z,91.14
2022-12-11T23:24:24.094Z,91.12
2022-12-11T23:26:51.907Z,91.20
2022-12-11T23:29:19.755Z,90.96
2022-12-11T23:31:48.983Z,90.81
2022-12-11T23:34:16.776Z,90.66
2022-12-11T23:36:44.581Z,90.64
2022-12-11T23:39:12.474Z,90.80
2022-12-11T23:41:42.109Z,90.92
2022-12-11T23:44:10.494Z,90.85
2022-12-11T23:46:39.166Z,90.77
2022-12-11T23:49:08.338Z,90.73
2022-12-11T23:51:36.085Z,90.29
2022-12-11T23:54:03.864Z,89.91
2022-12-11T23:56:31.689Z,89.70
2022-12-11T23:58:59.752Z,89.98
